Login to view products. 
Friday, April 28, 2017 (10:09 UTC)
Ras Al Khaimah International Airport
ICAO Code: OMRK
IATA Code: RKT
  • METAR OMRK 281000Z 35011KT CAVOK 37/15 Q1008 A2978=
  • TAF OMRK 280454Z 2806/2912 10005KT CAVOK PROB40 2808/2813 35012KT BECMG 2910/2912 35014KT=